Time;durP1;ratioP1;P1;durP2;ratioP2;P2;SDS_P1;SDS_P2;PMS_P1;PMS_P2;Temp;Humidity;BMP_temperature;BMP_pressure;BME280_temperature;BME280_humidity;BME280_pressure;Samples;Min_cycle;Max_cycle;Signal;HPM_P1;HPM_P2
2021/06/23 00:00:01;;;;;;;4.80;2.85;;;24.50;68.10;;;;;;5035770;28;20029;-43
2021/06/23 00:02:26;;;;;;;5.55;3.13;;;24.50;68.30;;;;;;5035375;28;20421;-41
2021/06/23 00:04:52;;;;;;;7.72;3.03;;;24.50;68.40;;;;;;5035776;28;20368;-42
2021/06/23 00:07:17;;;;;;;10.10;3.28;;;24.50;68.70;;;;;;5035130;28;20449;-43
2021/06/23 00:09:43;;;;;;;11.35;3.33;;;24.40;68.20;;;;;;5035664;28;20032;-42
2021/06/23 00:12:14;;;;;;;9.90;3.05;;;24.40;68.20;;;;;;5035819;28;20068;-41
2021/06/23 00:14:41;;;;;;;8.50;3.08;;;24.40;68.40;;;;;;5035793;28;20029;-42
2021/06/23 00:17:06;;;;;;;9.20;2.85;;;24.40;68.40;;;;;;5035578;28;20087;-43
2021/06/23 00:19:32;;;;;;;9.57;3.80;;;24.40;68.10;;;;;;5035586;28;20041;-42
2021/06/23 00:21:58;;;;;;;9.35;3.53;;;24.40;68.30;;;;;;5035003;28;20041;-43
2021/06/23 00:24:23;;;;;;;7.13;3.33;;;24.40;68.40;;;;;;5035359;28;20352;-41
2021/06/23 00:26:49;;;;;;;8.35;3.20;;;24.40;68.40;;;;;;5035463;28;20432;-42
2021/06/23 00:29:14;;;;;;;8.05;3.28;;;24.40;68.60;;;;;;5035547;28;20024;-44
2021/06/23 00:31:40;;;;;;;10.35;3.42;;;24.40;68.70;;;;;;5035550;28;20060;-42
2021/06/23 00:34:10;;;;;;;7.25;3.00;;;24.40;68.90;;;;;;5035225;28;20036;-42
2021/06/23 00:36:36;;;;;;;;;;;24.30;69.00;;;;;;5036053;28;20350;-42
2021/06/23 00:39:02;;;;;;;12.02;4.28;;;24.30;68.60;;;;;;5035130;28;19913;-42
2021/06/23 00:41:27;;;;;;;5.55;2.90;;;24.30;69.00;;;;;;5035561;28;20037;-42
2021/06/23 00:43:55;;;;;;;9.05;3.80;;;24.30;69.00;;;;;;5034834;28;20022;-42
2021/06/23 00:46:21;;;;;;;11.02;3.85;;;24.30;69.20;;;;;;5035386;28;20041;-43
2021/06/23 00:48:55;;;;;;;7.78;3.63;;;24.30;69.00;;;;;;5035109;28;20036;-42
2021/06/23 00:51:21;;;;;;;8.55;3.65;;;24.20;68.90;;;;;;5035524;28;20095;-42
2021/06/23 00:53:47;;;;;;;8.10;3.28;;;24.20;68.40;;;;;;5034929;28;20033;-42
2021/06/23 00:56:15;;;;;;;7.88;3.42;;;24.20;68.30;;;;;;5035559;28;20036;-44
2021/06/23 00:58:42;;;;;;;6.55;3.20;;;24.20;68.40;;;;;;5037829;28;20079;-42
2021/06/23 01:01:08;;;;;;;10.85;3.20;;;24.20;68.40;;;;;;5038667;28;20033;-44
2021/06/23 01:03:34;;;;;;;8.20;3.70;;;24.20;68.30;;;;;;5038711;28;20429;-42
2021/06/23 01:06:00;;;;;;;8.32;3.75;;;24.20;68.30;;;;;;5038956;28;20048;-42
2021/06/23 01:08:26;;;;;;;10.35;3.25;;;24.20;68.50;;;;;;5038313;28;20033;-42
2021/06/23 01:10:52;;;;;;;9.00;3.60;;;24.20;68.50;;;;;;5038991;28;20119;-44
2021/06/23 01:13:33;;;;;;;9.20;3.38;;;24.30;68.70;;;;;;5038486;28;20077;-43
2021/06/23 01:15:59;;;;;;;9.30;3.50;;;24.30;68.70;;;;;;5038797;28;20040;-42
2021/06/23 01:18:26;;;;;;;12.68;3.60;;;24.20;68.70;;;;;;5038462;28;20026;-44
2021/06/23 01:20:52;;;;;;;12.60;3.55;;;24.20;68.80;;;;;;5038181;28;20089;-43
2021/06/23 01:23:19;;;;;;;9.63;3.65;;;24.20;68.80;;;;;;5036998;28;20433;-44
2021/06/23 01:25:47;;;;;;;6.18;3.42;;;24.20;68.60;;;;;;5038652;28;20333;-43
2021/06/23 01:28:12;;;;;;;9.98;3.55;;;24.20;68.80;;;;;;5038293;28;20040;-45
2021/06/23 01:30:38;;;;;;;9.00;3.38;;;24.20;68.90;;;;;;5038201;28;20457;-43
2021/06/23 01:33:05;;;;;;;6.97;3.70;;;24.20;68.80;;;;;;5038207;28;20039;-42
2021/06/23 01:35:32;;;;;;;10.45;3.85;;;24.20;68.70;;;;;;5038126;28;20026;-41
2021/06/23 01:38:02;;;;;;;9.75;3.90;;;24.10;69.20;;;;;;5037893;28;20042;-42
2021/06/23 01:40:28;;;;;;;14.80;4.28;;;24.10;69.30;;;;;;5038170;28;20055;-42
2021/06/23 01:42:54;;;;;;;14.48;4.22;;;24.10;69.20;;;;;;5038024;28;20045;-42
2021/06/23 01:45:20;;;;;;;10.30;4.38;;;24.10;69.40;;;;;;5037740;28;20087;-42
2021/06/23 01:47:45;;;;;;;10.88;3.92;;;24.10;69.70;;;;;;5037620;28;20026;-43
2021/06/23 01:50:12;;;;;;;10.77;4.20;;;24.00;69.70;;;;;;5037997;28;20104;-42
2021/06/23 01:52:42;;;;;;;9.73;4.30;;;24.00;70.10;;;;;;5037546;28;20052;-42
2021/06/23 01:55:26;;;;;;;10.70;3.50;;;23.90;70.20;;;;;;5037963;28;20038;-42
2021/06/23 01:57:57;;;;;;;8.55;3.55;;;23.90;70.20;;;;;;5037381;28;20069;-42
2021/06/23 02:00:30;;;;;;;9.50;3.80;;;23.90;70.40;;;;;;5037998;28;20022;-46
2021/06/23 02:03:01;;;;;;;7.97;3.40;;;23.90;70.00;;;;;;5037599;28;20428;-44
2021/06/23 02:05:39;;;;;;;10.20;3.50;;;23.80;69.80;;;;;;5037361;28;20112;-43
2021/06/23 02:08:54;;;;;;;9.95;3.97;;;23.90;69.80;;;;;;5037356;28;20041;-43
2021/06/23 02:11:36;;;;;;;10.80;3.22;;;23.90;69.40;;;;;;5027817;28;20029;-42
2021/06/23 02:14:22;;;;;;;5.60;3.33;;;23.90;69.70;;;;;;5037434;28;20037;-42
2021/06/23 02:16:49;;;;;;;7.38;3.35;;;23.90;68.50;;;;;;5036945;28;20325;-41
2021/06/23 02:19:16;;;;;;;5.63;3.13;;;23.90;68.50;;;;;;5037462;28;20061;-42
2021/06/23 02:21:42;;;;;;;5.72;3.10;;;23.90;69.30;;;;;;5036913;28;20057;-44
2021/06/23 02:24:10;;;;;;;8.82;3.20;;;24.00;69.10;;;;;;5052795;28;20323;-42
2021/06/23 02:26:36;;;;;;;6.28;3.15;;;24.00;69.30;;;;;;5037340;28;20053;-42
2021/06/23 02:29:04;;;;;;;6.38;2.92;;;24.00;69.40;;;;;;5037449;28;20037;-41
2021/06/23 02:31:30;;;;;;;5.38;3.38;;;24.00;69.10;;;;;;5037275;28;20025;-43
2021/06/23 02:33:57;;;;;;;7.80;3.35;;;24.00;69.20;;;;;;5036919;28;20041;-42
2021/06/23 02:36:24;;;;;;;8.95;2.90;;;24.00;69.10;;;;;;5037099;28;20045;-42
2021/06/23 02:38:51;;;;;;;5.15;2.90;;;24.10;68.80;;;;;;5036481;28;20037;-42
2021/06/23 02:41:17;;;;;;;6.95;3.47;;;24.10;68.40;;;;;;5035771;28;20025;-42
2021/06/23 02:43:44;;;;;;;8.35;3.22;;;24.10;68.20;;;;;;5036664;28;20396;-42
2021/06/23 02:46:10;;;;;;;9.57;3.15;;;24.10;68.30;;;;;;5036883;28;20025;-42
2021/06/23 02:48:36;;;;;;;11.60;3.10;;;24.10;68.20;;;;;;5036445;28;20041;-44
2021/06/23 02:51:06;;;;;;;9.23;3.42;;;24.10;68.20;;;;;;5037034;28;20299;-42
2021/06/23 02:53:32;;;;;;;7.13;3.30;;;24.20;67.70;;;;;;5036912;28;20113;-41
2021/06/23 02:55:58;;;;;;;7.82;3.08;;;24.20;67.60;;;;;;5036914;28;20044;-42
2021/06/23 02:58:24;;;;;;;6.97;3.10;;;24.20;67.50;;;;;;5036232;28;20041;-42
2021/06/23 03:00:52;;;;;;;6.35;3.25;;;24.30;67.40;;;;;;5036918;28;20025;-42
2021/06/23 03:03:18;;;;;;;8.68;3.20;;;24.30;67.20;;;;;;5036409;28;20076;-43
2021/06/23 03:05:44;;;;;;;6.63;3.45;;;24.30;67.20;;;;;;5036760;28;20232;-42
2021/06/23 03:08:10;;;;;;;7.60;3.38;;;24.30;67.30;;;;;;5036091;28;20080;-46
2021/06/23 03:10:36;;;;;;;8.15;3.38;;;24.40;67.30;;;;;;5036628;28;20036;-42
2021/06/23 03:13:02;;;;;;;9.05;3.22;;;24.40;66.90;;;;;;5036059;28;20029;-42
2021/06/23 03:15:28;;;;;;;15.90;3.67;;;24.40;67.00;;;;;;5036345;28;20037;-42
2021/06/23 03:17:53;;;;;;;5.68;2.90;;;24.50;66.70;;;;;;5035913;28;20080;-44
2021/06/23 03:20:19;;;;;;;9.02;3.00;;;24.50;66.70;;;;;;5035537;28;20309;-42
2021/06/23 03:22:45;;;;;;;11.23;3.33;;;24.60;66.90;;;;;;5035254;28;20094;-45
2021/06/23 03:25:11;;;;;;;10.98;3.22;;;24.60;67.10;;;;;;5036403;28;20359;-43
2021/06/23 03:27:38;;;;;;;7.32;3.30;;;24.60;67.10;;;;;;5035573;28;20422;-41
2021/06/23 03:30:05;;;;;;;7.07;3.40;;;24.60;67.10;;;;;;5035778;28;20025;-42
2021/06/23 03:32:31;;;;;;;7.63;3.42;;;24.70;67.60;;;;;;5035626;28;20045;-42
2021/06/23 03:34:57;;;;;;;26.85;4.50;;;24.70;67.00;;;;;;5035684;28;20022;-41
2021/06/23 03:37:22;;;;;;;17.40;3.42;;;24.80;67.30;;;;;;5035500;28;20037;-44
2021/06/23 03:39:48;;;;;;;6.28;3.17;;;24.80;67.30;;;;;;5035744;28;20029;-43
2021/06/23 03:42:14;;;;;;;6.65;3.33;;;24.80;67.20;;;;;;5036001;28;20061;-42
2021/06/23 03:44:39;;;;;;;6.70;3.67;;;24.90;66.90;;;;;;5035966;28;20084;-44
2021/06/23 03:47:05;;;;;;;5.55;3.45;;;24.90;67.10;;;;;;5035642;28;20060;-43
2021/06/23 03:49:31;;;;;;;12.52;3.83;;;24.90;67.40;;;;;;5035527;28;20368;-42
2021/06/23 03:51:57;;;;;;;8.40;3.25;;;25.00;67.30;;;;;;5035748;28;20065;-42
2021/06/23 03:54:23;;;;;;;5.63;3.40;;;25.00;67.30;;;;;;5035935;28;20038;-44
2021/06/23 03:56:48;;;;;;;6.70;3.38;;;25.00;67.00;;;;;;5035592;28;20033;-45
2021/06/23 03:59:14;;;;;;;7.15;3.63;;;25.10;67.00;;;;;;5035309;28;20456;-43
2021/06/23 04:01:40;;;;;;;10.27;3.63;;;25.10;66.70;;;;;;5035612;28;20413;-42
2021/06/23 04:04:06;;;;;;;5.65;3.63;;;25.20;66.80;;;;;;5035329;28;20068;-42
2021/06/23 04:06:32;;;;;;;12.63;3.80;;;25.20;67.40;;;;;;5035577;28;20021;-42
2021/06/23 04:08:57;;;;;;;8.15;3.15;;;25.20;66.70;;;;;;5035302;28;20605;-43
2021/06/23 04:11:23;;;;;;;8.85;3.20;;;25.30;66.70;;;;;;5035681;28;20026;-41
2021/06/23 04:13:49;;;;;;;10.45;3.95;;;25.30;66.80;;;;;;5035109;28;20033;-41
2021/06/23 04:16:15;;;;;;;7.25;3.47;;;25.40;66.30;;;;;;5035848;28;20037;-43
2021/06/23 04:18:40;;;;;;;9.20;3.45;;;25.40;66.00;;;;;;5035185;28;20038;-44
2021/06/23 04:21:06;;;;;;;13.02;4.32;;;25.50;65.90;;;;;;5035365;28;20033;-45
2021/06/23 04:23:32;;;;;;;11.70;3.60;;;25.50;65.70;;;;;;5035320;28;20418;-42
2021/06/23 04:25:58;;;;;;;5.78;3.20;;;25.50;65.50;;;;;;5035120;28;20068;-42
2021/06/23 04:28:24;;;;;;;6.97;3.55;;;25.60;65.50;;;;;;5035035;28;20061;-45
2021/06/23 04:30:50;;;;;;;14.45;4.03;;;25.60;65.40;;;;;;5035329;28;20041;-43
2021/06/23 04:33:15;;;;;;;17.10;4.05;;;25.70;65.40;;;;;;5037023;28;20021;-42
2021/06/23 04:35:42;;;;;;;63.78;7.28;;;25.70;66.10;;;;;;5039141;28;20025;-42
2021/06/23 04:38:08;;;;;;;7.00;3.20;;;25.80;65.20;;;;;;5038980;28;20029;-42
2021/06/23 04:40:34;;;;;;;9.57;3.58;;;25.80;64.60;;;;;;5039133;28;20309;-41
2021/06/23 04:42:59;;;;;;;8.90;3.85;;;25.90;64.80;;;;;;5038720;28;20025;-41
2021/06/23 04:45:25;;;;;;;8.20;3.47;;;25.90;64.80;;;;;;5039049;28;20040;-42
2021/06/23 04:47:51;;;;;;;11.55;4.10;;;25.90;64.50;;;;;;5038221;28;20025;-41
2021/06/23 04:50:16;;;;;;;9.25;3.92;;;26.00;64.40;;;;;;5039028;28;20082;-42
2021/06/23 04:52:42;;;;;;;8.20;4.05;;;26.00;64.20;;;;;;5038312;28;20039;-43
2021/06/23 04:55:08;;;;;;;7.55;3.42;;;26.00;64.10;;;;;;5038559;28;20112;-41
2021/06/23 04:57:34;;;;;;;5.05;3.40;;;26.00;63.70;;;;;;5038584;28;20030;-42
2021/06/23 05:00:00;;;;;;;8.15;3.63;;;26.10;63.50;;;;;;5038596;28;20029;-40
2021/06/23 05:02:26;;;;;;;10.95;3.97;;;26.10;63.60;;;;;;5038044;28;20026;-42
2021/06/23 05:04:51;;;;;;;6.40;3.42;;;26.10;63.30;;;;;;5038795;28;20156;-41
2021/06/23 05:07:17;;;;;;;10.82;4.22;;;26.10;63.30;;;;;;5037826;28;20033;-42
2021/06/23 05:09:43;;;;;;;10.73;3.90;;;26.10;63.30;;;;;;5038482;28;20044;-41
2021/06/23 05:12:09;;;;;;;16.48;4.55;;;26.10;63.50;;;;;;5038571;28;20029;-42
2021/06/23 05:14:36;;;;;;;11.80;4.32;;;26.10;63.90;;;;;;5038154;28;20375;-42
2021/06/23 05:17:03;;;;;;;8.10;3.70;;;26.20;64.10;;;;;;5038379;28;20029;-41
2021/06/23 05:19:28;;;;;;;9.90;4.03;;;26.20;64.00;;;;;;5037988;28;20048;-42
2021/06/23 05:21:54;;;;;;;7.63;4.00;;;26.30;63.70;;;;;;5037769;28;20045;-41
2021/06/23 05:24:20;;;;;;;11.77;4.43;;;26.40;64.00;;;;;;5038377;28;20040;-41
2021/06/23 05:26:46;;;;;;;9.52;4.25;;;26.50;63.50;;;;;;5038043;28;20029;-40
2021/06/23 05:29:11;;;;;;;11.25;5.78;;;26.60;63.40;;;;;;5037900;28;20414;-42
2021/06/23 05:31:37;;;;;;;10.68;4.03;;;26.70;63.20;;;;;;5038293;28;20076;-41
2021/06/23 05:34:03;;;;;;;12.45;4.90;;;26.80;63.00;;;;;;5037919;28;20037;-41
2021/06/23 05:36:29;;;;;;;6.75;3.97;;;26.90;62.70;;;;;;5038084;28;20054;-41
2021/06/23 05:38:55;;;;;;;14.02;5.30;;;27.00;62.50;;;;;;5037749;28;20371;-42
2021/06/23 05:41:20;;;;;;;13.13;5.55;;;27.00;62.20;;;;;;5038008;28;20364;-41
2021/06/23 05:43:46;;;;;;;9.40;4.38;;;27.10;61.60;;;;;;5036676;28;20029;-41
2021/06/23 05:46:12;;;;;;;8.48;4.20;;;27.10;61.50;;;;;;5037526;28;20073;-41
2021/06/23 05:48:38;;;;;;;10.38;4.68;;;27.20;61.30;;;;;;5037604;28;20286;-41
2021/06/23 05:51:05;;;;;;;11.15;4.65;;;27.20;61.40;;;;;;5037682;28;20035;-42
2021/06/23 05:53:31;;;;;;;13.25;4.80;;;27.20;61.80;;;;;;5037258;28;20038;-43
2021/06/23 05:55:57;;;;;;;11.45;4.68;;;27.30;62.00;;;;;;5037943;28;20033;-41
2021/06/23 05:58:23;;;;;;;9.20;4.20;;;27.30;61.70;;;;;;5037014;28;20037;-42
2021/06/23 06:00:49;;;;;;;6.55;4.53;;;27.40;61.60;;;;;;5037859;28;20026;-42
2021/06/23 06:03:15;;;;;;;9.00;4.00;;;27.30;61.10;;;;;;5037113;28;20026;-41
2021/06/23 06:05:41;;;;;;;7.32;3.80;;;27.40;61.10;;;;;;5036782;28;20417;-42
2021/06/23 06:08:06;;;;;;;15.52;4.15;;;27.40;61.10;;;;;;5036253;28;20064;-41
2021/06/23 06:10:33;;;;;;;11.98;5.78;;;27.40;61.00;;;;;;5047416;28;20033;-43
2021/06/23 06:13:00;;;;;;;13.02;4.45;;;27.40;61.00;;;;;;5036261;28;20103;-41
2021/06/23 06:15:26;;;;;;;9.70;4.25;;;27.40;61.00;;;;;;5036713;28;20416;-41
2021/06/23 06:17:51;;;;;;;9.52;4.50;;;27.40;61.20;;;;;;5036591;28;20109;-43
2021/06/23 06:20:18;;;;;;;11.98;4.70;;;27.50;61.40;;;;;;5036210;28;20064;-43
2021/06/23 06:22:44;;;;;;;8.95;4.53;;;27.50;61.40;;;;;;5036163;28;20060;-43
2021/06/23 06:25:10;;;;;;;11.63;4.57;;;27.50;61.10;;;;;;5036274;28;20361;-44
2021/06/23 06:27:36;;;;;;;13.57;4.80;;;27.60;61.00;;;;;;5035703;28;20115;-40
2021/06/23 06:30:03;;;;;;;6.10;3.90;;;27.60;60.70;;;;;;5036060;28;20142;-40
2021/06/23 06:32:28;;;;;;;13.10;4.50;;;27.60;60.60;;;;;;5036186;28;20143;-40
2021/06/23 06:34:54;;;;;;;11.88;4.32;;;27.50;60.40;;;;;;5036191;28;20025;-45
2021/06/23 06:37:20;;;;;;;8.50;4.20;;;27.60;60.60;;;;;;5036342;28;20029;-44
2021/06/23 06:39:45;;;;;;;8.38;4.15;;;27.60;60.90;;;;;;5035855;28;20129;-42
2021/06/23 06:42:11;;;;;;;9.13;4.05;;;27.60;61.00;;;;;;5036329;28;20030;-40
2021/06/23 06:44:37;;;;;;;8.93;4.43;;;27.70;61.00;;;;;;5036475;28;20030;-40
2021/06/23 06:47:03;;;;;;;6.65;4.07;;;27.80;60.50;;;;;;5035947;28;20033;-40
2021/06/23 06:49:29;;;;;;;14.65;5.20;;;27.90;59.90;;;;;;5036353;28;20033;-40
2021/06/23 06:52:00;;;;;;;32.97;19.23;;;27.90;59.40;;;;;;5035647;28;20117;-40
2021/06/23 06:54:27;;;;;;;12.10;6.80;;;28.00;59.80;;;;;;5036104;28;20069;-40
2021/06/23 06:56:53;;;;;;;13.80;7.22;;;27.90;59.60;;;;;;5035588;28;20036;-41
2021/06/23 06:59:19;;;;;;;11.35;7.07;;;28.00;59.80;;;;;;5035996;28;20078;-44
2021/06/23 07:01:46;;;;;;;15.82;7.45;;;28.00;59.70;;;;;;5035593;28;20025;-44
2021/06/23 07:04:14;;;;;;;12.23;5.47;;;28.00;59.90;;;;;;5035926;28;20033;-41
2021/06/23 07:06:40;;;;;;;11.18;6.68;;;28.00;59.90;;;;;;5035830;28;20396;-44
2021/06/23 07:09:05;;;;;;;17.95;6.38;;;28.10;60.10;;;;;;5035817;28;20120;-44
2021/06/23 07:11:31;;;;;;;20.58;14.95;;;28.00;60.30;;;;;;5035483;28;20091;-45
2021/06/23 07:13:57;;;;;;;26.60;17.35;;;28.10;60.70;;;;;;5035703;28;20140;-44
2021/06/23 07:16:22;;;;;;;19.65;14.18;;;28.10;60.90;;;;;;5035909;28;20032;-43
2021/06/23 07:18:49;;;;;;;16.30;10.90;;;28.10;61.00;;;;;;5035578;28;20087;-44
2021/06/23 07:21:19;;;;;;;15.23;8.57;;;28.10;60.60;;;;;;5035521;28;20037;-41
2021/06/23 07:23:45;;;;;;;15.38;8.88;;;28.10;60.60;;;;;;5035712;28;20376;-44
2021/06/23 07:26:12;;;;;;;15.55;6.47;;;28.10;60.70;;;;;;5035499;28;20118;-43
2021/06/23 07:31:08;;;;;;;11.88;7.10;;;28.10;61.00;;;;;;5035350;28;20043;-42
2021/06/23 07:33:35;;;;;;;10.93;6.57;;;28.20;61.00;;;;;;5035506;28;20040;-40
2021/06/23 07:38:45;;;;;;;10.65;5.68;;;28.30;60.30;;;;;;5035490;28;20040;-41
2021/06/23 07:41:10;;;;;;;10.25;4.80;;;28.30;60.10;;;;;;5035499;28;20402;-40
2021/06/23 07:43:37;;;;;;;7.38;5.03;;;28.30;60.10;;;;;;5034909;28;20037;-40
2021/06/23 07:46:04;;;;;;;15.38;5.90;;;28.40;60.50;;;;;;5035216;28;20064;-44
2021/06/23 07:48:33;;;;;;;10.88;5.28;;;28.40;60.90;;;;;;5035272;28;20374;-40
2021/06/23 07:53:31;;;;;;;17.40;5.47;;;28.50;60.40;;;;;;5035190;28;20045;-40
2021/06/23 08:09:06;;;;;;;10.02;5.20;;;29.00;58.90;;;;;;5041489;28;20327;-40
2021/06/23 08:11:44;;;;;;;10.82;5.60;;;29.00;58.40;;;;;;5040780;28;20029;-43
2021/06/23 08:14:10;;;;;;;10.40;5.70;;;29.00;59.00;;;;;;5041906;28;20046;-43
2021/06/23 08:16:37;;;;;;;7.43;5.55;;;29.00;58.60;;;;;;5041268;28;20040;-43
2021/06/23 08:19:03;;;;;;;13.10;5.43;;;29.00;58.40;;;;;;5041070;28;20429;-43
2021/06/23 08:21:29;;;;;;;13.10;6.82;;;29.00;58.50;;;;;;5040980;28;20045;-43
2021/06/23 08:23:55;;;;;;;9.98;7.03;;;29.10;58.30;;;;;;5041151;28;20025;-43
2021/06/23 08:26:21;;;;;;;10.68;5.78;;;29.10;58.60;;;;;;5041104;28;20379;-43
2021/06/23 08:28:47;;;;;;;9.77;4.85;;;29.10;58.80;;;;;;5040932;28;20057;-45
2021/06/23 08:31:13;;;;;;;9.32;4.32;;;29.10;58.80;;;;;;5041256;28;20414;-43
2021/06/23 08:33:39;;;;;;;10.10;5.00;;;29.20;58.50;;;;;;5041039;28;20083;-44
2021/06/23 08:36:05;;;;;;;10.77;4.28;;;29.20;58.20;;;;;;5041421;28;20041;-43
2021/06/23 08:38:31;;;;;;;10.65;4.70;;;29.20;58.20;;;;;;5041299;28;20306;-45
2021/06/23 08:40:57;;;;;;;11.02;4.75;;;29.10;58.30;;;;;;5041322;28;20022;-43
2021/06/23 08:43:23;;;;;;;11.65;4.47;;;29.20;58.80;;;;;;5041090;28;20084;-43
2021/06/23 08:45:48;;;;;;;8.88;4.47;;;29.10;58.70;;;;;;5041420;28;20029;-43
2021/06/23 08:48:15;;;;;;;10.35;4.32;;;29.10;58.70;;;;;;5040777;28;20033;-44
2021/06/23 08:50:41;;;;;;;11.90;5.10;;;29.10;59.00;;;;;;5041083;28;20021;-42
2021/06/23 08:53:08;;;;;;;13.73;6.18;;;29.10;59.30;;;;;;5041207;28;20030;-44
2021/06/23 08:55:34;;;;;;;10.18;6.05;;;29.20;59.40;;;;;;5041231;28;20108;-44
2021/06/23 08:58:00;;;;;;;9.70;5.07;;;29.10;59.20;;;;;;5040778;28;20040;-42
2021/06/23 09:00:26;;;;;;;12.35;5.20;;;29.10;59.70;;;;;;5040801;28;20029;-43
2021/06/23 09:02:57;;;;;;;9.73;5.40;;;29.10;59.60;;;;;;5040763;28;20041;-43
2021/06/23 09:05:23;;;;;;;12.73;5.78;;;29.10;59.80;;;;;;5041155;28;20028;-44
2021/06/23 09:07:59;;;;;;;13.38;5.90;;;29.10;59.80;;;;;;5040343;28;20325;-43
2021/06/23 09:10:28;;;;;;;12.00;5.53;;;29.10;59.60;;;;;;5040956;28;20030;-44
2021/06/23 09:13:09;;;;;;;10.65;5.18;;;29.10;59.90;;;;;;5039484;28;20043;-44
2021/06/23 09:15:41;;;;;;;11.57;5.72;;;29.20;60.10;;;;;;5040900;28;20033;-43
2021/06/23 09:18:18;;;;;;;11.77;5.22;;;29.20;60.00;;;;;;5040145;28;20450;-41
2021/06/23 09:20:46;;;;;;;14.43;4.88;;;29.30;59.80;;;;;;5037594;28;20030;-43
2021/06/23 09:23:13;;;;;;;10.65;5.57;;;29.30;60.20;;;;;;5037041;28;20040;-46
2021/06/23 09:25:40;;;;;;;8.63;4.90;;;29.40;60.00;;;;;;5037552;28;20029;-43
2021/06/23 09:28:14;;;;;;;16.23;7.05;;;29.40;60.00;;;;;;5037283;28;20040;-43
2021/06/23 09:30:42;;;;;;;12.30;5.32;;;29.50;60.30;;;;;;5037787;28;20352;-44
2021/06/23 09:33:20;;;;;;;8.68;4.95;;;29.50;60.00;;;;;;5037379;28;20491;-45
2021/06/23 09:35:59;;;;;;;10.85;5.60;;;29.60;59.80;;;;;;5037793;28;20121;-44
2021/06/23 09:38:39;;;;;;;11.05;5.55;;;29.60;59.80;;;;;;5037464;28;20322;-44
2021/06/23 09:41:16;;;;;;;10.27;6.25;;;29.70;60.00;;;;;;5037532;28;20030;-44
2021/06/23 09:43:42;;;;;;;16.80;5.68;;;29.70;60.00;;;;;;5037124;28;20442;-45
2021/06/23 09:46:20;;;;;;;15.90;10.00;;;29.80;60.00;;;;;;5037412;28;20045;-44
2021/06/23 09:48:47;;;;;;;12.40;6.22;;;29.90;59.90;;;;;;5037333;28;20095;-44
2021/06/23 09:51:18;;;;;;;20.55;9.60;;;29.90;60.20;;;;;;5037284;28;20053;-45
2021/06/23 09:53:45;;;;;;;17.75;8.02;;;30.00;60.20;;;;;;5037303;28;20389;-43
2021/06/23 09:56:40;;;;;;;19.48;9.40;;;30.00;60.00;;;;;;5037477;28;20039;-44
2021/06/23 09:59:07;;;;;;;12.80;8.15;;;30.10;60.30;;;;;;5037057;28;20033;-44
2021/06/23 10:01:42;;;;;;;12.63;6.93;;;30.10;60.20;;;;;;5037170;28;20037;-45
2021/06/23 10:04:09;;;;;;;13.77;7.57;;;30.20;60.30;;;;;;5036986;28;20445;-43
2021/06/23 10:06:37;;;;;;;11.20;4.70;;;30.20;60.70;;;;;;5037007;28;20033;-44
2021/06/23 10:09:13;;;;;;;10.50;5.63;;;30.30;60.70;;;;;;5036970;28;20037;-45
2021/06/23 10:11:40;;;;;;;10.27;4.85;;;30.40;60.50;;;;;;5036760;28;20042;-45
2021/06/23 10:14:07;;;;;;;10.23;4.95;;;30.40;60.20;;;;;;5036599;28;20033;-43
2021/06/23 10:16:34;;;;;;;13.30;5.03;;;30.50;59.70;;;;;;5036427;28;20425;-44
2021/06/23 10:19:00;;;;;;;8.50;5.53;;;30.60;59.40;;;;;;5036720;28;20068;-44
2021/06/23 10:21:30;;;;;;;10.43;5.47;;;30.70;59.30;;;;;;5036147;28;20489;-45
2021/06/23 10:23:57;;;;;;;12.35;4.68;;;30.70;59.10;;;;;;5036754;28;20040;-44
2021/06/23 10:26:28;;;;;;;13.45;5.63;;;30.80;59.00;;;;;;5036604;28;20080;-43
2021/06/23 10:28:55;;;;;;;11.48;5.18;;;30.90;58.60;;;;;;5036224;28;20060;-44
2021/06/23 10:31:23;;;;;;;19.77;5.88;;;30.90;58.70;;;;;;5036190;28;20038;-44
2021/06/23 10:33:49;;;;;;;11.45;5.13;;;31.00;58.90;;;;;;5036118;28;20091;-46
2021/06/23 10:36:14;;;;;;;10.80;7.13;;;31.00;58.70;;;;;;5036561;28;20041;-45
2021/06/23 10:38:43;;;;;;;8.63;5.05;;;31.00;58.30;;;;;;5036071;28;20083;-44
2021/06/23 10:41:09;;;;;;;15.93;5.60;;;31.00;57.80;;;;;;5036230;28;20087;-44
2021/06/23 10:43:35;;;;;;;13.30;6.05;;;31.00;57.60;;;;;;5036052;28;20029;-45
2021/06/23 10:46:01;;;;;;;9.32;5.22;;;31.00;57.60;;;;;;5036139;28;20057;-46
2021/06/23 10:48:27;;;;;;;11.20;5.90;;;31.00;57.60;;;;;;5035835;28;20063;-45
2021/06/23 10:50:52;;;;;;;13.20;4.88;;;31.00;57.90;;;;;;5035172;28;20029;-43
2021/06/23 10:53:34;;;;;;;16.52;5.55;;;31.00;58.30;;;;;;5035861;28;20163;-45
2021/06/23 10:56:04;;;;;;;17.75;7.13;;;31.00;58.30;;;;;;5036497;28;20044;-45
2021/06/23 10:58:32;;;;;;;12.35;5.88;;;30.90;58.60;;;;;;5035707;28;20029;-40
2021/06/23 11:01:13;;;;;;;22.42;5.55;;;30.90;58.80;;;;;;5036171;28;20034;-42
2021/06/23 11:04:02;;;;;;;18.73;6.78;;;30.90;58.90;;;;;;5035422;28;20045;-40
2021/06/23 11:06:38;;;;;;;14.85;6.93;;;30.90;59.40;;;;;;5035824;28;20040;-43
2021/06/23 11:09:36;;;;;;;21.35;7.32;;;30.80;59.60;;;;;;5036188;28;20367;-41
2021/06/23 11:12:02;;;;;;;17.27;7.10;;;30.80;59.20;;;;;;5012524;28;20041;-42
2021/06/23 11:14:32;;;;;;;14.55;7.28;;;30.70;59.10;;;;;;5035771;28;20034;-42
2021/06/23 11:17:33;;;;;;;27.63;7.25;;;30.70;59.10;;;;;;5036066;28;20046;-43
2021/06/23 11:19:58;;;;;;;12.50;6.18;;;30.60;59.50;;;;;;5036069;28;20034;-42
2021/06/23 11:22:33;;;;;;;10.98;5.90;;;30.60;59.30;;;;;;5035507;28;20442;-41
2021/06/23 11:25:28;;;;;;;15.45;6.18;;;30.60;59.30;;;;;;5035848;28;20021;-42
2021/06/23 11:28:24;;;;;;;15.75;6.28;;;30.50;59.50;;;;;;5035337;28;20029;-44
2021/06/23 11:30:50;;;;;;;16.80;5.63;;;30.50;59.20;;;;;;5035839;28;20033;-43
2021/06/23 11:33:28;;;;;;;12.70;6.15;;;30.40;59.20;;;;;;5035099;28;20038;-41
2021/06/23 11:36:01;;;;;;;22.33;10.57;;;30.40;59.20;;;;;;5035654;28;20052;-41
2021/06/23 11:38:27;;;;;;;17.23;8.10;;;30.40;59.20;;;;;;5034976;28;20040;-41
2021/06/23 11:40:55;;;;;;;50.72;8.60;;;30.40;59.50;;;;;;5035631;28;20322;-43
2021/06/23 11:43:21;;;;;;;16.88;5.93;;;30.30;60.10;;;;;;5029726;28;20037;-40
2021/06/23 11:45:48;;;;;;;16.05;9.52;;;30.30;60.30;;;;;;5035169;28;20018;-44
2021/06/23 11:48:16;;;;;;;17.02;7.38;;;30.20;60.10;;;;;;5034556;28;20029;-44
2021/06/23 11:50:43;;;;;;;18.13;6.55;;;30.20;60.10;;;;;;5035403;28;20360;-42
2021/06/23 11:53:11;;;;;;;16.88;5.40;;;30.20;60.20;;;;;;5034221;28;20568;-45
2021/06/23 11:55:38;;;;;;;19.50;7.72;;;30.10;61.00;;;;;;5034811;28;20033;-43
2021/06/23 11:58:04;;;;;;;21.58;6.97;;;30.10;60.90;;;;;;5034607;28;20037;-41
2021/06/23 12:00:31;;;;;;;21.02;6.80;;;30.00;60.40;;;;;;5035216;28;20056;-42
2021/06/23 12:02:58;;;;;;;15.27;5.60;;;30.00;60.00;;;;;;5034409;28;20033;-45
2021/06/23 12:05:25;;;;;;;10.70;5.35;;;29.90;60.20;;;;;;5035296;28;20021;-46
2021/06/23 12:07:52;;;;;;;19.88;6.72;;;29.80;59.90;;;;;;5034521;28;20026;-43
2021/06/23 12:10:21;;;;;;;13.13;6.03;;;29.80;60.10;;;;;;5035449;28;20079;-43
2021/06/23 12:12:48;;;;;;;19.23;7.40;;;29.70;60.10;;;;;;5034575;28;20159;-44
2021/06/23 12:15:16;;;;;;;17.42;5.72;;;29.70;60.40;;;;;;5035312;28;20034;-41
2021/06/23 12:17:46;;;;;;;15.07;5.18;;;29.60;60.40;;;;;;5034367;28;20115;-44
2021/06/23 12:20:12;;;;;;;22.33;10.65;;;29.60;60.60;;;;;;5035115;28;20401;-44
2021/06/23 12:22:38;;;;;;;16.15;7.18;;;29.60;60.70;;;;;;5049799;28;20069;-42
2021/06/23 12:25:12;;;;;;;16.40;5.47;;;29.50;61.00;;;;;;5035042;28;20053;-42
2021/06/23 12:27:39;;;;;;;17.65;12.50;;;29.50;61.30;;;;;;5034069;28;20029;-43
2021/06/23 12:30:06;;;;;;;16.10;6.00;;;29.50;61.10;;;;;;5034859;28;20057;-44
2021/06/23 12:32:33;;;;;;;16.15;5.45;;;29.40;61.30;;;;;;5033938;28;20429;-42
2021/06/23 12:35:00;;;;;;;10.23;5.13;;;29.40;61.70;;;;;;5034660;28;20021;-44
2021/06/23 12:37:26;;;;;;;13.75;5.75;;;29.40;62.00;;;;;;5033988;28;20061;-42
2021/06/23 12:39:52;;;;;;;16.50;6.60;;;29.40;62.30;;;;;;5034745;28;20102;-44
2021/06/23 12:42:18;;;;;;;17.13;5.97;;;29.40;62.50;;;;;;5033998;28;20033;-44
2021/06/23 12:44:44;;;;;;;13.25;6.28;;;29.30;62.70;;;;;;5034804;28;20029;-44
2021/06/23 12:47:09;;;;;;;14.18;6.65;;;29.30;62.80;;;;;;5034147;28;20326;-43
2021/06/23 12:49:35;;;;;;;22.83;6.80;;;29.30;63.00;;;;;;5034913;28;20287;-41
2021/06/23 12:52:01;;;;;;;23.77;6.20;;;29.30;63.10;;;;;;5034476;28;20163;-42
2021/06/23 12:54:28;;;;;;;17.08;6.45;;;29.30;63.20;;;;;;5036842;28;20091;-41
2021/06/23 12:56:54;;;;;;;22.17;7.53;;;29.30;63.30;;;;;;5038037;28;20032;-42
2021/06/23 12:59:20;;;;;;;19.20;6.38;;;29.20;63.00;;;;;;5038316;28;20368;-42
2021/06/23 13:01:46;;;;;;;29.63;7.30;;;29.30;63.10;;;;;;5037847;28;20036;-42
2021/06/23 13:04:12;;;;;;;24.73;6.95;;;29.30;63.20;;;;;;5038238;28;20033;-42